createdAt,value
2022-10-21T00:01:00.873Z,12.61
2022-10-21T00:03:30.981Z,12.58
2022-10-21T00:06:00.013Z,12.55
2022-10-21T00:08:30.804Z,12.60
2022-10-21T00:11:00.285Z,12.58
2022-10-21T00:13:31.750Z,12.52
2022-10-21T00:16:04.327Z,12.64
2022-10-21T00:18:33.434Z,12.70
2022-10-21T00:21:06.557Z,12.62
2022-10-21T00:23:34.458Z,12.57
2022-10-21T00:26:04.525Z,12.55
2022-10-21T00:28:32.219Z,12.46
2022-10-21T00:30:59.903Z,12.46
2022-10-21T00:33:28.157Z,12.40
2022-10-21T00:35:57.368Z,12.51
2022-10-21T00:38:26.404Z,12.41
2022-10-21T00:40:54.117Z,12.34
2022-10-21T00:43:21.805Z,12.34
2022-10-21T00:45:51.064Z,12.25
2022-10-21T00:48:26.179Z,12.35
2022-10-21T00:50:56.311Z,12.27
2022-10-21T00:53:26.434Z,12.30
2022-10-21T00:55:57.038Z,12.40
2022-10-21T00:58:27.790Z,12.31
2022-10-21T01:00:57.278Z,12.32
2022-10-21T01:03:26.655Z,12.28
2022-10-21T01:05:55.092Z,12.19
2022-10-21T01:08:23.899Z,12.36
2022-10-21T01:10:53.114Z,12.23
2022-10-21T01:13:26.844Z,12.38
2022-10-21T01:15:58.238Z,12.30
2022-10-21T01:18:32.289Z,12.38
2022-10-21T01:21:21.382Z,12.40
2022-10-21T01:24:21.275Z,12.49
2022-10-21T01:27:08.417Z,12.35
2022-10-21T01:30:15.821Z,12.32
2022-10-21T01:33:13.144Z,12.22
2022-10-21T01:35:45.736Z,12.36
2022-10-21T01:38:19.224Z,12.27
2022-10-21T01:40:55.969Z,12.35
2022-10-21T01:43:30.760Z,12.21
2022-10-21T01:46:03.452Z,12.24
2022-10-21T01:48:36.403Z,12.31
2022-10-21T01:51:07.574Z,12.25
2022-10-21T01:53:46.705Z,12.25
2022-10-21T01:56:16.733Z,12.23
2022-10-21T01:58:45.457Z,12.28
2022-10-21T02:01:14.742Z,12.35
2022-10-21T02:03:47.040Z,12.30
2022-10-21T02:06:15.266Z,12.23
2022-10-21T02:08:43.758Z,12.22
2022-10-21T02:11:13.289Z,12.19
2022-10-21T02:13:44.070Z,12.30
2022-10-21T02:16:14.973Z,12.33
2022-10-21T02:18:45.639Z,12.40
2022-10-21T02:21:17.649Z,12.47
2022-10-21T02:23:52.421Z,12.51
2022-10-21T02:26:20.553Z,12.34
2022-10-21T02:28:48.729Z,12.25
2022-10-21T02:31:28.415Z,12.24
2022-10-21T02:34:05.982Z,12.22
2022-10-21T02:36:40.844Z,12.18
2022-10-21T02:39:15.481Z,12.16
2022-10-21T02:41:43.756Z,12.21
2022-10-21T02:44:11.505Z,12.21
2022-10-21T02:46:41.433Z,12.16
2022-10-21T02:49:11.314Z,12.31
2022-10-21T02:51:39.046Z,12.26
2022-10-21T02:54:06.813Z,12.29
2022-10-21T02:56:35.428Z,12.29
2022-10-21T02:59:03.224Z,12.26
2022-10-21T03:01:30.980Z,12.29
2022-10-21T03:04:00.526Z,12.27
2022-10-21T03:06:29.647Z,12.31
2022-10-21T03:08:57.427Z,12.35
2022-10-21T03:11:25.305Z,12.36
2022-10-21T03:13:53.114Z,12.30
2022-10-21T03:16:20.947Z,12.28
2022-10-21T03:18:48.745Z,12.14
2022-10-21T03:21:16.450Z,12.27
2022-10-21T03:23:45.557Z,12.22
2022-10-21T03:26:13.308Z,12.09
2022-10-21T03:28:41.037Z,12.20
2022-10-21T03:31:08.932Z,12.14
2022-10-21T03:33:36.677Z,12.02
2022-10-21T03:36:04.824Z,12.12
2022-10-21T03:38:32.595Z,12.21
2022-10-21T03:41:02.979Z,12.19
2022-10-21T03:43:30.802Z,12.21
2022-10-21T03:45:58.525Z,12.17
2022-10-21T03:48:26.248Z,12.27
2022-10-21T03:50:54.078Z,12.15
2022-10-21T03:53:38.085Z,12.37
2022-10-21T03:56:11.062Z,12.24
2022-10-21T03:58:38.877Z,12.20
2022-10-21T04:01:06.983Z,12.30
2022-10-21T04:03:34.806Z,12.29
2022-10-21T04:06:04.887Z,12.27
2022-10-21T04:08:32.862Z,12.27
2022-10-21T04:11:02.789Z,12.02
2022-10-21T04:13:32.285Z,12.08
2022-10-21T04:16:00.745Z,12.13
2022-10-21T04:18:28.709Z,12.15
2022-10-21T04:20:56.487Z,12.20
2022-10-21T04:23:24.353Z,11.90
2022-10-21T04:25:52.101Z,12.07
2022-10-21T04:28:19.819Z,12.02
2022-10-21T04:30:50.232Z,12.08
2022-10-21T04:33:17.912Z,12.15
2022-10-21T04:35:45.609Z,12.14
2022-10-21T04:38:13.318Z,12.10
2022-10-21T04:40:41.050Z,12.14
2022-10-21T04:43:08.708Z,12.10
2022-10-21T04:45:39.443Z,12.12
2022-10-21T04:48:08.732Z,12.29
2022-10-21T04:50:36.672Z,12.09
2022-10-21T04:53:04.646Z,12.23
2022-10-21T04:55:32.438Z,12.23
2022-10-21T04:58:00.331Z,12.12
2022-10-21T05:00:28.127Z,12.23
2022-10-21T05:02:55.790Z,12.17
2022-10-21T05:05:24.846Z,12.32
2022-10-21T05:07:52.503Z,12.19
2022-10-21T05:10:20.276Z,12.36
2022-10-21T05:12:47.981Z,12.23
2022-10-21T05:15:15.765Z,12.16
2022-10-21T05:17:43.653Z,12.21
2022-10-21T05:20:12.017Z,12.16
2022-10-21T05:22:41.348Z,12.17
2022-10-21T05:25:10.025Z,12.19
2022-10-21T05:27:37.837Z,12.25
2022-10-21T05:30:06.445Z,12.31
2022-10-21T05:32:34.140Z,12.18
2022-10-21T05:35:01.870Z,12.12
2022-10-21T05:37:56.685Z,12.20
2022-10-21T05:40:24.757Z,12.26
2022-10-21T05:42:52.562Z,12.08
2022-10-21T05:45:20.525Z,12.05
2022-10-21T05:47:48.257Z,12.29
2022-10-21T05:50:16.156Z,12.33
2022-10-21T05:52:43.870Z,12.35
2022-10-21T05:55:13.077Z,12.36
2022-10-21T05:57:40.910Z,12.48
2022-10-21T06:00:09.900Z,12.49
2022-10-21T06:02:37.982Z,12.54
2022-10-21T06:05:06.205Z,12.45
2022-10-21T06:07:33.918Z,12.38
2022-10-21T06:10:01.742Z,12.39
2022-10-21T06:12:30.800Z,12.41
2022-10-21T06:14:58.467Z,12.29
2022-10-21T06:17:26.328Z,12.33
2022-10-21T06:19:54.013Z,12.25
2022-10-21T06:22:21.738Z,11.99
2022-10-21T06:24:50.645Z,11.91
2022-10-21T06:27:18.789Z,12.05
2022-10-21T06:29:48.059Z,11.94
2022-10-21T06:32:15.819Z,12.00
2022-10-21T06:34:43.535Z,11.98
2022-10-21T06:37:11.222Z,11.99
2022-10-21T06:39:38.922Z,12.27
2022-10-21T06:42:06.630Z,12.33
2022-10-21T06:44:34.314Z,12.18
2022-10-21T06:47:03.981Z,12.12
2022-10-21T06:49:31.719Z,12.11
2022-10-21T06:51:59.433Z,12.34
2022-10-21T06:54:27.325Z,12.48
2022-10-21T06:56:55.120Z,12.52
2022-10-21T06:59:22.795Z,12.57
2022-10-21T07:02:05.846Z,12.59
2022-10-21T07:04:34.918Z,12.67
2022-10-21T07:07:02.630Z,12.71
2022-10-21T07:09:30.629Z,12.56
2022-10-21T07:11:58.450Z,12.49
2022-10-21T07:14:26.366Z,12.28
2022-10-21T07:16:54.333Z,12.29
2022-10-21T07:19:22.095Z,12.48
2022-10-21T07:21:51.904Z,12.61
2022-10-21T07:24:22.479Z,12.56
2022-10-21T07:26:50.887Z,12.37
2022-10-21T07:29:19.051Z,12.26
2022-10-21T07:31:46.704Z,12.34
2022-10-21T07:34:14.475Z,12.25
2022-10-21T07:36:44.074Z,12.22
2022-10-21T07:39:15.724Z,12.26
2022-10-21T07:41:45.486Z,12.27
2022-10-21T07:44:13.904Z,12.36
2022-10-21T07:46:42.909Z,12.37
2022-10-21T07:49:11.320Z,12.43
2022-10-21T07:51:39.940Z,12.53
2022-10-21T07:54:08.008Z,12.51
2022-10-21T07:56:40.585Z,12.54
2022-10-21T07:59:12.885Z,12.58
2022-10-21T08:01:44.188Z,12.50
2022-10-21T08:04:13.874Z,12.55
2022-10-21T08:06:41.761Z,12.56
2022-10-21T08:09:09.539Z,12.63
2022-10-21T08:11:39.013Z,12.56
2022-10-21T08:14:09.742Z,12.76
2022-10-21T08:16:37.739Z,12.64
2022-10-21T08:19:06.096Z,12.64
2022-10-21T08:21:33.822Z,12.57
2022-10-21T08:24:03.252Z,12.69
2022-10-21T08:26:31.364Z,12.63
2022-10-21T08:29:00.497Z,12.80
2022-10-21T08:31:30.289Z,12.89
2022-10-21T08:33:58.144Z,12.91
2022-10-21T08:36:26.932Z,12.92
2022-10-21T08:38:54.947Z,12.97
2022-10-21T08:41:35.497Z,13.02
2022-10-21T08:44:06.950Z,13.08
2022-10-21T08:46:36.996Z,13.01
2022-10-21T08:49:07.364Z,13.09
2022-10-21T08:51:39.127Z,13.08
2022-10-21T08:54:11.169Z,13.00
2022-10-21T08:56:38.853Z,13.02
2022-10-21T08:59:11.528Z,13.03
2022-10-21T09:01:46.989Z,13.17
2022-10-21T09:04:20.069Z,13.16
2022-10-21T09:06:53.265Z,13.22
2022-10-21T09:09:26.593Z,13.13
2022-10-21T09:12:00.593Z,13.18
2022-10-21T09:14:50.838Z,13.23
2022-10-21T09:17:30.788Z,13.20
2022-10-21T09:20:04.395Z,13.21
2022-10-21T09:22:49.585Z,13.21
2022-10-21T09:25:20.589Z,13.25
2022-10-21T09:27:56.448Z,13.32
2022-10-21T09:30:26.301Z,13.31
2022-10-21T09:32:57.769Z,13.37
2022-10-21T09:35:32.957Z,13.39
2022-10-21T09:38:03.613Z,13.38
2022-10-21T09:40:33.842Z,13.50
2022-10-21T09:43:02.146Z,13.42
2022-10-21T09:45:34.129Z,13.53
2022-10-21T09:48:04.112Z,13.58
2022-10-21T09:50:34.352Z,13.54
2022-10-21T09:53:07.245Z,13.61
2022-10-21T09:55:35.134Z,13.70
2022-10-21T09:58:04.371Z,13.72
2022-10-21T10:00:47.939Z,13.63
2022-10-21T10:03:31.721Z,13.75
2022-10-21T10:05:59.887Z,13.80
2022-10-21T10:08:34.483Z,13.81
2022-10-21T10:11:04.408Z,13.86
2022-10-21T10:13:32.480Z,13.89
2022-10-21T10:16:19.332Z,13.89
2022-10-21T10:18:47.030Z,13.96
2022-10-21T10:21:15.979Z,14.04
2022-10-21T10:23:45.724Z,14.06
2022-10-21T10:26:19.256Z,14.18
2022-10-21T10:28:52.669Z,14.27
2022-10-21T10:31:31.172Z,14.37
2022-10-21T10:34:03.028Z,14.46
2022-10-21T10:36:33.608Z,14.46
2022-10-21T10:39:03.120Z,14.51
2022-10-21T10:41:34.416Z,14.57
2022-10-21T10:44:03.515Z,14.62
2022-10-21T10:46:34.655Z,14.66
2022-10-21T10:49:06.447Z,14.66
2022-10-21T10:51:35.569Z,14.71
2022-10-21T10:54:17.572Z,14.69
2022-10-21T10:56:49.993Z,14.75
2022-10-21T10:59:24.686Z,14.74
2022-10-21T11:02:01.582Z,14.72
2022-10-21T11:04:33.784Z,14.83
2022-10-21T11:07:06.773Z,14.88
2022-10-21T11:09:35.126Z,14.88
2022-10-21T11:12:04.957Z,14.95
2022-10-21T11:14:33.008Z,14.90
2022-10-21T11:17:07.265Z,15.03
2022-10-21T11:19:44.035Z,15.02
2022-10-21T11:22:16.284Z,15.09
2022-10-21T11:24:53.700Z,15.12
2022-10-21T11:27:28.688Z,15.04
2022-10-21T11:30:02.950Z,15.20
2022-10-21T11:32:39.472Z,15.19
2022-10-21T11:35:17.854Z,15.26
2022-10-21T11:37:58.246Z,15.27
2022-10-21T11:40:33.280Z,15.29
2022-10-21T11:43:06.871Z,15.38
2022-10-21T11:45:41.807Z,15.31
2022-10-21T11:48:21.340Z,15.43
2022-10-21T11:50:58.840Z,15.52
2022-10-21T11:53:40.117Z,15.54
2022-10-21T11:56:16.394Z,15.61
2022-10-21T11:58:50.963Z,15.57
2022-10-21T12:01:30.031Z,15.71
2022-10-21T12:04:24.399Z,15.66
2022-10-21T12:07:03.755Z,15.72
2022-10-21T12:09:37.716Z,15.80
2022-10-21T12:12:07.477Z,15.78
2022-10-21T12:14:38.283Z,15.79
2022-10-21T12:17:09.258Z,15.81
2022-10-21T12:19:38.550Z,15.80
2022-10-21T12:22:07.568Z,15.78
2022-10-21T12:24:44.277Z,15.84
2022-10-21T12:27:18.503Z,15.81
2022-10-21T12:29:54.126Z,15.91
2022-10-21T12:32:27.985Z,15.87
2022-10-21T12:34:57.518Z,15.90
2022-10-21T12:37:46.459Z,15.95
2022-10-21T12:40:17.330Z,15.96
2022-10-21T12:42:47.807Z,15.93
2022-10-21T12:45:37.134Z,15.92
2022-10-21T12:48:08.181Z,15.93
2022-10-21T12:50:37.523Z,16.01
2022-10-21T12:53:09.161Z,16.12
2022-10-21T12:55:41.374Z,16.11
2022-10-21T12:58:23.484Z,16.16
2022-10-21T13:00:56.597Z,16.15
2022-10-21T13:03:51.988Z,16.16
2022-10-21T13:06:51.314Z,16.21
2022-10-21T13:09:39.603Z,16.23
2022-10-21T13:12:27.013Z,16.36
2022-10-21T13:14:55.504Z,16.36
2022-10-21T13:17:34.805Z,16.37
2022-10-21T13:20:40.998Z,16.32
2022-10-21T13:23:36.764Z,16.45
2022-10-21T13:26:07.092Z,16.37
2022-10-21T13:28:34.977Z,16.43
2022-10-21T13:31:02.729Z,16.48
2022-10-21T13:33:38.511Z,16.51
2022-10-21T13:36:13.030Z,16.35
2022-10-21T13:38:49.634Z,16.51
2022-10-21T13:41:23.505Z,16.45
2022-10-21T13:43:55.589Z,16.47
2022-10-21T13:46:27.018Z,16.46
2022-10-21T13:48:55.283Z,16.51
2022-10-21T13:51:25.960Z,16.48
2022-10-21T13:53:57.252Z,16.46
2022-10-21T13:56:26.086Z,16.52
2022-10-21T13:58:54.019Z,16.56
2022-10-21T14:01:25.227Z,16.55
2022-10-21T14:03:53.468Z,16.55
2022-10-21T14:06:30.310Z,16.56
2022-10-21T14:09:00.292Z,16.56
2022-10-21T14:11:34.893Z,16.62
2022-10-21T14:14:08.387Z,16.63
2022-10-21T14:16:38.881Z,16.63
2022-10-21T14:19:10.264Z,16.59
2022-10-21T14:21:39.200Z,16.62
2022-10-21T14:24:20.145Z,16.64
2022-10-21T14:26:47.836Z,16.59
2022-10-21T14:29:15.619Z,16.66
2022-10-21T14:31:45.704Z,16.66
2022-10-21T14:34:22.948Z,16.68
2022-10-21T14:37:09.388Z,16.64
2022-10-21T14:39:40.885Z,16.64
2022-10-21T14:42:13.358Z,16.60
2022-10-21T14:44:42.850Z,16.65
2022-10-21T14:47:18.226Z,16.61
2022-10-21T14:49:47.890Z,16.65
2022-10-21T14:52:21.310Z,16.67
2022-10-21T14:54:54.517Z,16.68
2022-10-21T14:57:35.356Z,16.66
2022-10-21T15:00:03.688Z,16.63
2022-10-21T15:02:34.483Z,16.61
2022-10-21T15:05:04.187Z,16.58
2022-10-21T15:07:33.086Z,16.61
2022-10-21T15:10:14.571Z,16.57
2022-10-21T15:12:43.580Z,16.58
2022-10-21T15:15:42.914Z,16.58
2022-10-21T15:18:14.196Z,16.52
2022-10-21T15:20:53.969Z,16.51
2022-10-21T15:23:25.314Z,16.51
2022-10-21T15:25:57.396Z,16.52
2022-10-21T15:28:26.037Z,16.58
2022-10-21T15:30:53.801Z,16.56
2022-10-21T15:33:22.453Z,16.56
2022-10-21T15:36:00.897Z,16.56
2022-10-21T15:38:29.612Z,16.57
2022-10-21T15:40:58.733Z,16.50
2022-10-21T15:43:26.488Z,16.52
2022-10-21T15:45:54.540Z,16.53
2022-10-21T15:48:23.055Z,16.53
2022-10-21T15:50:50.782Z,16.57
2022-10-21T15:53:18.480Z,16.55
2022-10-21T15:55:46.194Z,16.51
2022-10-21T15:58:15.255Z,16.52
2022-10-21T16:00:43.539Z,16.56
2022-10-21T16:03:11.224Z,16.53
2022-10-21T16:05:39.246Z,16.57
2022-10-21T16:08:07.040Z,16.54
2022-10-21T16:10:37.117Z,16.51
2022-10-21T16:13:05.531Z,16.52
2022-10-21T16:15:35.076Z,16.51
2022-10-21T16:18:04.184Z,16.51
2022-10-21T16:20:33.544Z,16.51
2022-10-21T16:23:03.545Z,16.52
2022-10-21T16:25:31.385Z,16.54
2022-10-21T16:27:59.113Z,16.54
2022-10-21T16:30:28.856Z,16.56
2022-10-21T16:32:58.142Z,16.51
2022-10-21T16:35:26.225Z,16.57
2022-10-21T16:37:55.521Z,16.54
2022-10-21T16:40:24.528Z,16.57
2022-10-21T16:42:52.949Z,16.61
2022-10-21T16:45:22.886Z,16.51
2022-10-21T16:47:52.677Z,16.57
2022-10-21T16:50:23.315Z,16.56
2022-10-21T16:52:51.044Z,16.58
2022-10-21T16:55:19.244Z,16.58
2022-10-21T16:57:47.209Z,16.62
2022-10-21T17:00:15.901Z,16.67
2022-10-21T17:02:50.358Z,16.51
2022-10-21T17:08:35.694Z,16.52
2022-10-21T17:11:07.757Z,16.59
2022-10-21T17:13:35.537Z,16.63
2022-10-21T17:16:05.485Z,16.51
2022-10-21T17:18:33.330Z,16.54
2022-10-21T17:21:03.865Z,16.66
2022-10-21T17:23:33.672Z,16.57
2022-10-21T17:26:01.494Z,16.60
2022-10-21T17:28:30.675Z,16.60
2022-10-21T17:30:58.356Z,16.55
2022-10-21T17:33:26.066Z,16.59
2022-10-21T17:35:54.021Z,16.52
2022-10-21T17:38:21.770Z,16.52
2022-10-21T17:40:50.807Z,16.60
2022-10-21T17:43:18.473Z,16.59
2022-10-21T17:45:46.250Z,16.58
2022-10-21T17:48:13.959Z,16.51
2022-10-21T17:50:41.710Z,16.57
2022-10-21T17:53:09.474Z,16.65
2022-10-21T17:55:37.212Z,16.58
2022-10-21T17:58:07.722Z,16.62
2022-10-21T18:00:35.652Z,16.65
2022-10-21T18:03:05.815Z,16.64
2022-10-21T18:05:33.523Z,16.64
2022-10-21T18:08:01.225Z,16.68
2022-10-21T18:10:30.129Z,16.67
2022-10-21T18:12:57.803Z,16.67
2022-10-21T18:15:28.240Z,16.63
2022-10-21T18:17:56.284Z,16.64
2022-10-21T18:20:24.201Z,16.64
2022-10-21T18:22:53.211Z,16.64
2022-10-21T18:25:20.886Z,16.63
2022-10-21T18:27:49.139Z,16.66
2022-10-21T18:30:16.845Z,16.61
2022-10-21T18:32:45.901Z,16.66
2022-10-21T18:35:14.973Z,16.63
2022-10-21T18:37:43.382Z,16.64
2022-10-21T18:40:11.828Z,16.71
2022-10-21T18:42:39.822Z,16.70
2022-10-21T18:45:08.852Z,16.66
2022-10-21T18:47:36.904Z,16.64
2022-10-21T18:50:08.326Z,16.62
2022-10-21T18:52:36.123Z,16.69
2022-10-21T18:57:34.388Z,16.64
2022-10-21T19:00:04.505Z,16.68
2022-10-21T19:02:32.305Z,16.60
2022-10-21T19:05:02.038Z,16.59
2022-10-21T19:07:31.969Z,16.70
2022-10-21T19:09:59.724Z,16.62
2022-10-21T19:12:27.493Z,16.74
2022-10-21T19:14:55.367Z,16.71
2022-10-21T19:17:23.462Z,16.69
2022-10-21T19:19:51.488Z,16.67
2022-10-21T19:22:19.945Z,16.64
2022-10-21T19:24:49.110Z,16.63
2022-10-21T19:27:16.876Z,16.63
2022-10-21T19:29:44.893Z,16.65
2022-10-21T19:32:13.560Z,16.63
2022-10-21T19:34:41.326Z,16.64
2022-10-21T19:37:10.499Z,16.65
2022-10-21T19:39:38.241Z,16.67
2022-10-21T19:42:08.329Z,16.64
2022-10-21T19:44:36.966Z,16.65
2022-10-21T19:47:04.855Z,16.67
2022-10-21T19:49:32.881Z,16.66
2022-10-21T19:52:00.618Z,16.64
2022-10-21T19:54:29.701Z,16.68
2022-10-21T19:56:57.826Z,16.58
2022-10-21T19:59:27.133Z,16.62
2022-10-21T20:01:54.817Z,16.65
2022-10-21T20:04:22.540Z,16.63
2022-10-21T20:06:50.291Z,16.59
2022-10-21T20:09:18.163Z,16.54
2022-10-21T20:11:45.960Z,16.62
2022-10-21T20:14:14.226Z,16.67
2022-10-21T20:16:44.006Z,16.58
2022-10-21T20:19:13.166Z,16.63
2022-10-21T20:21:41.118Z,16.65
2022-10-21T20:24:10.536Z,16.59
2022-10-21T20:29:06.963Z,16.66
2022-10-21T20:31:34.727Z,16.67
2022-10-21T20:34:04.068Z,16.65
2022-10-21T20:36:33.437Z,16.64
2022-10-21T20:39:03.866Z,16.71
2022-10-21T20:41:34.368Z,16.71
2022-10-21T20:44:03.130Z,16.65
2022-10-21T20:46:34.694Z,16.63
2022-10-21T20:49:05.489Z,16.65
2022-10-21T20:51:33.337Z,16.63
2022-10-21T20:54:05.101Z,16.72
2022-10-21T20:56:34.641Z,16.62
2022-10-21T20:59:07.003Z,16.67
2022-10-21T21:01:36.721Z,16.60
2022-10-21T21:04:08.102Z,16.65
2022-10-21T21:06:37.038Z,16.65
2022-10-21T21:11:52.836Z,16.61
2022-10-21T21:14:20.714Z,16.62
2022-10-21T21:16:48.480Z,16.65
2022-10-21T21:19:19.319Z,16.65
2022-10-21T21:21:47.471Z,16.69
2022-10-21T21:24:15.830Z,16.68
2022-10-21T21:26:43.566Z,16.62
2022-10-21T21:29:11.553Z,16.56
2022-10-21T21:31:40.373Z,16.60
2022-10-21T21:34:08.602Z,16.61
2022-10-21T21:36:38.114Z,16.59
2022-10-21T21:39:06.474Z,16.61
2022-10-21T21:41:34.600Z,16.68
2022-10-21T21:44:08.063Z,16.65
2022-10-21T21:46:36.373Z,16.64
2022-10-21T21:49:06.229Z,16.56
2022-10-21T21:51:35.924Z,16.43
2022-10-21T21:54:07.582Z,16.59
2022-10-21T21:56:37.276Z,16.60
2022-10-21T21:59:05.028Z,16.66
2022-10-21T22:01:32.861Z,16.69
2022-10-21T22:04:04.406Z,16.67
2022-10-21T22:06:33.386Z,16.68
2022-10-21T22:09:03.091Z,16.62
2022-10-21T22:11:33.469Z,16.54
2022-10-21T22:14:02.983Z,16.50
2022-10-21T22:16:30.958Z,16.54
2022-10-21T22:19:00.330Z,16.60
2022-10-21T22:21:28.342Z,16.64
2022-10-21T22:23:56.188Z,16.59
2022-10-21T22:26:26.559Z,16.59
2022-10-21T22:28:56.307Z,16.63
2022-10-21T22:31:29.198Z,16.62
2022-10-21T22:33:59.810Z,16.64
2022-10-21T22:36:27.653Z,16.64
2022-10-21T22:38:55.422Z,16.66
2022-10-21T22:41:23.176Z,16.67
2022-10-21T22:43:51.055Z,16.66
2022-10-21T22:46:33.002Z,16.65
2022-10-21T22:49:02.319Z,16.62
2022-10-21T22:51:30.109Z,16.67
2022-10-21T22:53:58.012Z,16.68
2022-10-21T22:56:26.637Z,16.58
2022-10-21T22:58:54.650Z,16.60
2022-10-21T23:01:26.574Z,16.64
2022-10-21T23:03:54.370Z,16.68
2022-10-21T23:06:22.976Z,16.63
2022-10-21T23:08:51.016Z,16.63
2022-10-21T23:11:18.916Z,16.59
2022-10-21T23:13:56.394Z,16.63
2022-10-21T23:16:32.173Z,16.68
2022-10-21T23:19:00.336Z,16.69
2022-10-21T23:21:29.896Z,16.67
2022-10-21T23:23:57.771Z,16.69
2022-10-21T23:26:25.731Z,16.66
2022-10-21T23:28:53.593Z,16.68
2022-10-21T23:31:21.485Z,16.68
2022-10-21T23:33:50.765Z,16.67
2022-10-21T23:36:18.708Z,16.67
2022-10-21T23:38:46.614Z,16.68
2022-10-21T23:41:14.481Z,16.69
2022-10-21T23:43:42.289Z,16.68
2022-10-21T23:46:10.201Z,16.65
2022-10-21T23:48:37.912Z,16.63
2022-10-21T23:51:07.274Z,16.64
2022-10-21T23:53:35.134Z,16.66
2022-10-21T23:56:02.946Z,16.62
2022-10-21T23:58:30.861Z,16.69
